Terminal Aerodrome Forecast
Issued by NWS Duluth, MN

Home | Current Version | Previous Version | Text Only | Print | Product List | Glossary On
Versions: 1 2 3 4 5 6 7 8 9 10 11 12 13 14 15 16 17 18 19 20 21 22
000
FTUS43 KDLH 211000 AAA
TAFDLH
TAF AMD
KDLH 211007Z 2110/2206 VRB05KT P6SM SKC
     FM211200 27009KT P6SM SCT040 BKN100
      TEMPO 2112/2114 5SM -SHRA
     FM211500 32012G22KT P6SM SCT040=

USA.gov is the U.S. government's official web portal to all federal, state and local government web resources and services.